createdAt,value
2023-12-13T00:00:00.381Z,96745.29
2023-12-13T00:02:29.187Z,96750.83
2023-12-13T00:04:57.287Z,96754.11
2023-12-13T00:07:25.398Z,96750.23
2023-12-13T00:09:53.623Z,96749.92
2023-12-13T00:12:21.628Z,96747.23
2023-12-13T00:14:49.611Z,96742.48
2023-12-13T00:17:19.458Z,96743.14
2023-12-13T00:19:48.363Z,96737.45
2023-12-13T00:22:16.819Z,96730.17
2023-12-13T00:24:44.948Z,96731.52
2023-12-13T00:27:13.095Z,96734.04
2023-12-13T00:29:42.133Z,96733.35
2023-12-13T00:32:11.303Z,96732.08
2023-12-13T00:34:39.634Z,96729.15
2023-12-13T00:37:07.798Z,96729.77
2023-12-13T00:39:35.941Z,96727.97
2023-12-13T00:42:04.219Z,96718.55
2023-12-13T00:44:32.742Z,96714.70
2023-12-13T00:47:00.987Z,96703.80
2023-12-13T00:49:29.243Z,96701.77
2023-12-13T00:51:57.252Z,96701.47
2023-12-13T00:54:26.213Z,96707.77
2023-12-13T00:56:54.450Z,96704.85
2023-12-13T00:59:22.884Z,96698.55
2023-12-13T01:01:51.073Z,96692.81
2023-12-13T01:04:19.670Z,96691.55
2023-12-13T01:06:47.842Z,96689.26
2023-12-13T01:09:15.779Z,96683.91
2023-12-13T01:11:43.991Z,96684.51
2023-12-13T01:14:12.091Z,96688.13
2023-12-13T01:16:40.217Z,96686.73
2023-12-13T01:19:09.252Z,96687.59
2023-12-13T01:21:37.756Z,96687.77
2023-12-13T01:24:05.899Z,96678.19
2023-12-13T01:26:34.406Z,96671.98
2023-12-13T01:29:02.519Z,96668.99
2023-12-13T01:31:30.907Z,96670.01
2023-12-13T01:33:59.158Z,96657.75
2023-12-13T01:36:27.215Z,96645.54
2023-12-13T01:38:55.216Z,96634.85
2023-12-13T01:41:23.408Z,96627.81
2023-12-13T01:43:51.647Z,96623.50
2023-12-13T01:46:19.991Z,96621.09
2023-12-13T01:48:48.627Z,96611.46
2023-12-13T01:51:17.195Z,96596.36
2023-12-13T01:53:45.583Z,96592.74
2023-12-13T01:56:14.237Z,96594.34
2023-12-13T01:58:43.154Z,96589.88
2023-12-13T02:01:11.631Z,96593.70
2023-12-13T02:03:40.873Z,96593.74
2023-12-13T02:06:08.895Z,96588.58
2023-12-13T02:08:37.250Z,96583.90
2023-12-13T02:11:05.672Z,96575.10
2023-12-13T02:13:34.746Z,96561.73
2023-12-13T02:16:02.950Z,96561.98
2023-12-13T02:18:31.671Z,96559.11
2023-12-13T02:20:59.773Z,96557.67
2023-12-13T02:23:27.826Z,96555.54
2023-12-13T02:26:03.933Z,96545.60
2023-12-13T02:28:32.458Z,96539.88
2023-12-13T02:31:01.939Z,96536.70
2023-12-13T02:33:31.498Z,96535.73
2023-12-13T02:36:02.483Z,96536.02
2023-12-13T02:38:31.028Z,96546.14
2023-12-13T02:40:59.752Z,96548.62
2023-12-13T02:43:29.509Z,96543.59
2023-12-13T02:45:57.734Z,96543.48
2023-12-13T02:48:26.459Z,96537.48
2023-12-13T02:50:54.786Z,96529.58
2023-12-13T02:53:23.473Z,96531.71
2023-12-13T02:55:52.412Z,96529.18
2023-12-13T02:58:20.795Z,96528.45
2023-12-13T03:00:49.772Z,96519.75
2023-12-13T03:03:17.850Z,96514.51
2023-12-13T03:05:46.085Z,96516.30
2023-12-13T03:08:18.200Z,96509.89
2023-12-13T03:10:46.415Z,96506.16
2023-12-13T03:13:14.715Z,96506.38
2023-12-13T03:15:42.719Z,96501.84
2023-12-13T03:18:11.699Z,96505.58
2023-12-13T03:20:40.740Z,96497.66
2023-12-13T03:23:10.189Z,96498.16
2023-12-13T03:25:38.346Z,96491.67
2023-12-13T03:28:06.885Z,96494.35
2023-12-13T03:30:35.052Z,96495.52
2023-12-13T03:33:03.180Z,96495.30
2023-12-13T03:35:31.199Z,96498.20
2023-12-13T03:37:59.238Z,96491.88
2023-12-13T03:40:27.274Z,96486.33
2023-12-13T03:42:55.299Z,96479.17
2023-12-13T03:45:25.504Z,96475.39
2023-12-13T03:47:54.333Z,96470.95
2023-12-13T03:50:22.655Z,96469.90
2023-12-13T03:52:50.779Z,96471.48
2023-12-13T03:55:19.053Z,96469.09
2023-12-13T03:57:47.188Z,96466.34
2023-12-13T04:00:15.345Z,96457.50
2023-12-13T04:02:43.466Z,96453.92
2023-12-13T04:05:11.681Z,96451.02
2023-12-13T04:07:39.880Z,96442.28
2023-12-13T04:10:08.475Z,96449.40
2023-12-13T04:12:36.587Z,96447.27
2023-12-13T04:15:05.322Z,96441.85
2023-12-13T04:17:33.725Z,96440.65
2023-12-13T04:20:02.209Z,96436.04
2023-12-13T04:22:30.538Z,96427.21
2023-12-13T04:24:58.452Z,96422.83
2023-12-13T04:27:26.586Z,96419.46
2023-12-13T04:29:54.895Z,96416.00
2023-12-13T04:32:22.888Z,96408.99
2023-12-13T04:34:51.119Z,96396.41
2023-12-13T04:37:19.374Z,96385.73
2023-12-13T04:39:47.519Z,96385.79
2023-12-13T04:42:15.433Z,96385.27
2023-12-13T04:44:43.679Z,96388.41
2023-12-13T04:47:11.956Z,96391.55
2023-12-13T04:49:40.003Z,96399.29
2023-12-13T04:52:08.291Z,96401.93
2023-12-13T04:54:39.095Z,96393.48
2023-12-13T04:57:07.169Z,96386.94
2023-12-13T04:59:35.547Z,96387.02
2023-12-13T05:02:03.760Z,96387.21
2023-12-13T05:04:31.998Z,96388.15
2023-12-13T05:07:00.440Z,96392.44
2023-12-13T05:09:28.515Z,96386.50
2023-12-13T05:11:56.746Z,96383.71
2023-12-13T05:14:24.801Z,96376.63
2023-12-13T05:16:52.854Z,96367.11
2023-12-13T05:19:21.944Z,96366.50
2023-12-13T05:21:50.247Z,96368.08
2023-12-13T05:24:18.441Z,96369.39
2023-12-13T05:26:46.519Z,96369.46
2023-12-13T05:29:14.596Z,96368.63
2023-12-13T05:31:42.726Z,96368.05
2023-12-13T05:34:10.732Z,96366.61
2023-12-13T05:36:38.844Z,96366.16
2023-12-13T05:39:08.637Z,96366.00
2023-12-13T05:41:36.730Z,96364.01
2023-12-13T05:44:05.168Z,96360.66
2023-12-13T05:46:35.632Z,96364.24
2023-12-13T05:49:09.000Z,96364.27
2023-12-13T05:51:38.742Z,96361.79
2023-12-13T05:54:07.414Z,96367.33
2023-12-13T05:56:35.943Z,96371.18
2023-12-13T05:59:04.591Z,96372.96
2023-12-13T06:01:32.843Z,96382.31
2023-12-13T06:04:01.005Z,96389.84
2023-12-13T06:06:29.138Z,96390.14
2023-12-13T06:08:57.153Z,96384.77
2023-12-13T06:11:25.690Z,96378.30
2023-12-13T06:13:53.819Z,96381.38
2023-12-13T06:16:22.098Z,96377.63
2023-12-13T06:18:50.405Z,96373.45
2023-12-13T06:21:18.541Z,96380.73
2023-12-13T06:23:46.494Z,96372.14
2023-12-13T06:26:14.405Z,96372.83
2023-12-13T06:28:42.466Z,96359.66
2023-12-13T06:31:10.724Z,96359.38
2023-12-13T06:33:39.113Z,96358.55
2023-12-13T06:36:07.586Z,96351.83
2023-12-13T06:38:35.790Z,96348.46
2023-12-13T06:41:03.925Z,96353.24
2023-12-13T06:43:32.136Z,96347.33
2023-12-13T06:46:00.232Z,96345.27
2023-12-13T06:48:29.737Z,96344.83
2023-12-13T06:50:57.818Z,96340.73
2023-12-13T06:53:26.181Z,96340.42
2023-12-13T06:55:55.531Z,96335.75
2023-12-13T06:58:23.925Z,96335.02
2023-12-13T07:00:52.661Z,96332.63
2023-12-13T07:03:21.774Z,96335.08
2023-12-13T07:05:49.995Z,96329.05
2023-12-13T07:08:18.270Z,96323.31
2023-12-13T07:10:46.615Z,96320.04
2023-12-13T07:13:14.873Z,96318.17
2023-12-13T07:15:42.929Z,96313.55
2023-12-13T07:18:10.938Z,96309.20
2023-12-13T07:20:41.785Z,96301.56
2023-12-13T07:23:11.785Z,96298.36
2023-12-13T07:25:40.473Z,96296.10
2023-12-13T07:28:09.471Z,96286.29
2023-12-13T07:30:39.069Z,96280.96
2023-12-13T07:33:11.997Z,96274.97
2023-12-13T07:35:40.197Z,96271.10
2023-12-13T07:38:08.300Z,96265.92
2023-12-13T07:40:36.346Z,96260.84
2023-12-13T07:43:04.871Z,96251.48
2023-12-13T07:45:33.311Z,96242.12
2023-12-13T07:48:13.603Z,96239.27
2023-12-13T07:50:49.514Z,96241.20
2023-12-13T07:53:17.723Z,96232.88
2023-12-13T07:55:45.794Z,96228.63
2023-12-13T07:58:14.083Z,96223.17
2023-12-13T08:00:42.336Z,96221.71
2023-12-13T08:03:10.904Z,96213.45
2023-12-13T08:05:39.038Z,96211.63
2023-12-13T08:08:07.032Z,96204.47
2023-12-13T08:10:35.487Z,96199.23
2023-12-13T08:13:04.489Z,96198.42
2023-12-13T08:15:32.537Z,96198.40
2023-12-13T08:18:00.883Z,96192.30
2023-12-13T08:20:31.798Z,96191.48
2023-12-13T08:22:59.948Z,96194.95
2023-12-13T08:25:28.133Z,96194.15
2023-12-13T08:27:56.414Z,96189.60
2023-12-13T08:30:24.610Z,96186.30
2023-12-13T08:32:52.650Z,96179.58
2023-12-13T08:35:20.908Z,96178.86
2023-12-13T08:37:49.101Z,96174.88
2023-12-13T08:40:17.257Z,96170.73
2023-12-13T08:42:46.087Z,96170.07
2023-12-13T08:45:14.612Z,96169.29
2023-12-13T08:47:42.797Z,96165.05
2023-12-13T08:50:11.223Z,96159.44
2023-12-13T08:52:39.813Z,96163.69
2023-12-13T08:55:11.651Z,96161.52
2023-12-13T08:57:39.778Z,96157.25
2023-12-13T09:00:10.686Z,96145.64
2023-12-13T09:02:39.856Z,96137.64
2023-12-13T09:05:08.625Z,96126.28
2023-12-13T09:07:37.567Z,96119.86
2023-12-13T09:10:09.511Z,96115.48
2023-12-13T09:12:38.018Z,96109.42
2023-12-13T09:15:08.824Z,96106.44
2023-12-13T09:17:37.884Z,96099.58
2023-12-13T09:20:11.059Z,96088.91
2023-12-13T09:22:39.756Z,96084.44
2023-12-13T09:25:08.641Z,96084.02
2023-12-13T09:27:37.338Z,96083.70
2023-12-13T09:30:06.028Z,96079.77
2023-12-13T09:32:36.888Z,96074.48
2023-12-13T09:35:05.742Z,96069.45
2023-12-13T09:37:34.337Z,96069.86
2023-12-13T09:40:03.748Z,96065.92
2023-12-13T09:42:32.639Z,96056.38
2023-12-13T09:45:03.218Z,96057.65
2023-12-13T09:47:35.129Z,96052.91
2023-12-13T09:50:03.788Z,96048.23
2023-12-13T09:52:33.218Z,96048.80
2023-12-13T09:55:02.408Z,96043.73
2023-12-13T09:57:30.573Z,96043.54
2023-12-13T09:59:58.975Z,96034.73
2023-12-13T10:02:27.549Z,96031.39
2023-12-13T10:04:57.815Z,96018.55
2023-12-13T10:07:26.781Z,96016.41
2023-12-13T10:09:56.913Z,96008.86
2023-12-13T10:12:26.828Z,96008.23
2023-12-13T10:14:55.058Z,96009.28
2023-12-13T10:17:23.996Z,96010.80
2023-12-13T10:19:52.149Z,95999.59
2023-12-13T10:22:20.568Z,95986.54
2023-12-13T10:24:49.285Z,95981.27
2023-12-13T10:27:18.199Z,95976.14
2023-12-13T10:29:49.262Z,95978.83
2023-12-13T10:32:19.914Z,95983.57
2023-12-13T10:34:48.109Z,95976.60
2023-12-13T10:37:16.783Z,95966.52
2023-12-13T10:39:48.043Z,95958.89
2023-12-13T10:42:19.420Z,95952.48
2023-12-13T10:44:52.002Z,95956.86
2023-12-13T10:47:28.094Z,95955.81
2023-12-13T10:49:57.472Z,95954.96
2023-12-13T10:52:28.252Z,95944.48
2023-12-13T10:54:57.090Z,95944.96
2023-12-13T10:57:25.926Z,95945.64
2023-12-13T10:59:55.273Z,95943.38
2023-12-13T11:02:27.560Z,95938.02
2023-12-13T11:04:56.070Z,95925.16
2023-12-13T11:07:24.232Z,95922.34
2023-12-13T11:09:54.407Z,95913.05
2023-12-13T11:12:23.496Z,95910.86
2023-12-13T11:14:53.457Z,95906.36
2023-12-13T11:17:23.847Z,95904.18
2023-12-13T11:19:54.302Z,95899.93
2023-12-13T11:22:24.982Z,95894.09
2023-12-13T11:25:04.776Z,95891.10
2023-12-13T11:27:33.898Z,95880.92
2023-12-13T11:30:14.078Z,95886.98
2023-12-13T11:32:49.911Z,95890.75
2023-12-13T11:35:20.903Z,95892.45
2023-12-13T11:37:54.562Z,95894.46
2023-12-13T11:40:23.194Z,95891.36
2023-12-13T11:42:51.989Z,95908.19
2023-12-13T11:45:21.696Z,95900.87
2023-12-13T11:47:51.687Z,95870.54
2023-12-13T11:50:21.447Z,95869.94
2023-12-13T11:52:50.070Z,95867.95
2023-12-13T11:55:23.914Z,95856.89
2023-12-13T11:57:54.978Z,95846.41
2023-12-13T12:00:23.297Z,95834.27
2023-12-13T12:02:55.341Z,95832.52
2023-12-13T12:05:26.978Z,95826.21
2023-12-13T12:08:04.832Z,95825.91
2023-12-13T12:10:33.605Z,95824.66
2023-12-13T12:13:02.902Z,95821.51
2023-12-13T12:15:32.780Z,95827.41
2023-12-13T12:18:02.724Z,95825.26
2023-12-13T12:20:30.886Z,95824.65
2023-12-13T12:22:59.645Z,95822.35
2023-12-13T12:25:31.999Z,95814.71
2023-12-13T12:28:00.399Z,95806.39
2023-12-13T12:30:28.718Z,95806.67
2023-12-13T12:32:57.022Z,95800.59
2023-12-13T12:35:25.149Z,95797.55
2023-12-13T12:37:53.211Z,95786.72
2023-12-13T12:40:21.516Z,95782.64
2023-12-13T12:42:49.612Z,95785.77
2023-12-13T12:45:17.661Z,95783.61
2023-12-13T12:47:45.923Z,95785.52
2023-12-13T12:50:14.201Z,95779.95
2023-12-13T12:52:43.525Z,95782.48
2023-12-13T12:55:12.031Z,95777.67
2023-12-13T12:57:40.136Z,95780.04
2023-12-13T13:00:08.537Z,95778.70
2023-12-13T13:02:36.584Z,95771.38
2023-12-13T13:05:05.169Z,95766.79
2023-12-13T13:07:35.627Z,95765.00
2023-12-13T13:10:06.450Z,95761.07
2023-12-13T13:12:34.482Z,95756.32
2023-12-13T13:15:02.487Z,95753.66
2023-12-13T13:17:31.697Z,95753.95
2023-12-13T13:20:02.981Z,95757.36
2023-12-13T13:22:31.094Z,95757.59
2023-12-13T13:24:59.215Z,95758.02
2023-12-13T13:27:29.173Z,95755.70
2023-12-13T13:29:57.720Z,95754.48
2023-12-13T13:32:26.164Z,95753.02
2023-12-13T13:34:54.813Z,95752.30
2023-12-13T13:37:23.213Z,95748.98
2023-12-13T13:39:51.497Z,95743.81
2023-12-13T13:42:19.490Z,95737.63
2023-12-13T13:44:47.601Z,95730.73
2023-12-13T13:47:15.653Z,95734.59
2023-12-13T13:49:43.860Z,95749.55
2023-12-13T13:52:12.164Z,95743.58
2023-12-13T13:54:41.072Z,95743.51
2023-12-13T13:57:09.521Z,95744.80
2023-12-13T13:59:37.696Z,95735.19
2023-12-13T14:02:06.694Z,95737.05
2023-12-13T14:04:34.868Z,95731.58
2023-12-13T14:07:03.113Z,95722.02
2023-12-13T14:09:31.279Z,95715.52
2023-12-13T14:11:59.405Z,95711.86
2023-12-13T14:14:27.511Z,95709.18
2023-12-13T14:16:55.493Z,95707.30
2023-12-13T14:19:23.582Z,95699.69
2023-12-13T14:21:51.817Z,95696.27
2023-12-13T14:24:20.190Z,95697.01
2023-12-13T14:26:48.865Z,95694.66
2023-12-13T14:29:17.198Z,95697.10
2023-12-13T14:31:46.102Z,95696.10
2023-12-13T14:34:14.205Z,95696.52
2023-12-13T14:36:42.306Z,95692.83
2023-12-13T14:39:10.156Z,95694.14
2023-12-13T14:41:38.321Z,95697.63
2023-12-13T14:44:08.970Z,95698.71
2023-12-13T14:46:37.832Z,95693.05
2023-12-13T14:49:09.251Z,95692.09
2023-12-13T14:51:38.729Z,95691.73
2023-12-13T14:54:06.890Z,95696.31
2023-12-13T14:56:37.400Z,95697.45
2023-12-13T14:59:05.912Z,95690.52
2023-12-13T15:01:34.305Z,95684.18
2023-12-13T15:04:03.731Z,95671.95
2023-12-13T15:06:36.679Z,95677.12
2023-12-13T15:09:04.872Z,95674.52
2023-12-13T15:11:32.935Z,95671.48
2023-12-13T15:14:01.103Z,95672.38
2023-12-13T15:16:30.109Z,95673.80
2023-12-13T15:19:01.252Z,95670.09
2023-12-13T15:21:29.896Z,95667.83
2023-12-13T15:23:58.202Z,95658.21
2023-12-13T15:26:26.540Z,95656.55
2023-12-13T15:28:55.254Z,95660.63
2023-12-13T15:31:25.206Z,95666.70
2023-12-13T15:33:53.388Z,95663.25
2023-12-13T15:36:22.246Z,95663.63
2023-12-13T15:38:50.388Z,95660.86
2023-12-13T15:41:18.773Z,95657.76
2023-12-13T15:43:48.169Z,95656.40
2023-12-13T15:46:16.504Z,95656.80
2023-12-13T15:48:44.599Z,95656.29
2023-12-13T15:51:12.681Z,95657.68
2023-12-13T15:53:40.901Z,95645.98
2023-12-13T15:56:09.573Z,95648.52
2023-12-13T15:58:41.877Z,95650.10
2023-12-13T16:01:10.625Z,95653.16
2023-12-13T16:03:39.586Z,95656.96
2023-12-13T16:06:08.053Z,95647.54
2023-12-13T16:08:36.196Z,95652.13
2023-12-13T16:11:09.542Z,95656.19
2023-12-13T16:13:39.812Z,95657.88
2023-12-13T16:16:08.843Z,95662.18
2023-12-13T16:18:37.085Z,95660.77
2023-12-13T16:21:07.361Z,95648.65
2023-12-13T16:23:36.557Z,95631.89
2023-12-13T16:26:04.882Z,95629.58
2023-12-13T16:28:32.922Z,95624.98
2023-12-13T16:31:01.492Z,95620.10
2023-12-13T16:33:29.500Z,95623.19
2023-12-13T16:35:57.720Z,95626.92
2023-12-13T16:38:26.629Z,95625.21
2023-12-13T16:40:55.033Z,95626.48
2023-12-13T16:43:23.228Z,95626.67
2023-12-13T16:45:52.081Z,95620.56
2023-12-13T16:48:21.190Z,95620.42
2023-12-13T16:50:49.446Z,95613.57
2023-12-13T16:53:17.502Z,95610.75
2023-12-13T16:55:45.456Z,95611.63
2023-12-13T16:58:14.158Z,95606.34
2023-12-13T17:00:43.913Z,95598.36
2023-12-13T17:03:13.258Z,95599.64
2023-12-13T17:05:41.918Z,95602.75
2023-12-13T17:08:10.864Z,95594.42
2023-12-13T17:10:39.129Z,95598.61
2023-12-13T17:13:07.335Z,95601.45
2023-12-13T17:15:35.301Z,95607.55
2023-12-13T17:18:03.553Z,95604.99
2023-12-13T17:20:31.521Z,95596.88
2023-12-13T17:22:59.763Z,95601.51
2023-12-13T17:25:27.872Z,95599.55
2023-12-13T17:27:55.823Z,95601.20
2023-12-13T17:30:24.161Z,95599.75
2023-12-13T17:32:52.408Z,95605.13
2023-12-13T17:35:22.176Z,95599.58
2023-12-13T17:37:50.160Z,95600.70
2023-12-13T17:40:18.954Z,95595.86
2023-12-13T17:42:47.117Z,95603.80
2023-12-13T17:45:15.332Z,95609.72
2023-12-13T17:47:43.520Z,95610.28
2023-12-13T17:50:11.650Z,95608.02
2023-12-13T17:52:40.011Z,95609.45
2023-12-13T17:55:08.458Z,95609.77
2023-12-13T17:57:36.575Z,95605.14
2023-12-13T18:00:05.894Z,95612.28
2023-12-13T18:02:34.162Z,95606.77
2023-12-13T18:05:02.541Z,95615.40
2023-12-13T18:07:33.238Z,95612.86
2023-12-13T18:10:02.798Z,95609.25
2023-12-13T18:12:31.055Z,95612.45
2023-12-13T18:15:02.856Z,95604.55
2023-12-13T18:17:32.723Z,95602.11
2023-12-13T18:20:01.941Z,95609.28
2023-12-13T18:22:30.077Z,95621.03
2023-12-13T18:24:58.281Z,95616.70
2023-12-13T18:27:26.478Z,95621.92
2023-12-13T18:29:54.538Z,95625.65
2023-12-13T18:32:22.579Z,95626.10
2023-12-13T18:34:50.668Z,95620.40
2023-12-13T18:37:19.100Z,95618.52
2023-12-13T18:39:47.573Z,95626.69
2023-12-13T18:42:15.534Z,95630.69
2023-12-13T18:44:43.572Z,95634.17
2023-12-13T18:47:11.534Z,95638.53
2023-12-13T18:49:41.098Z,95640.25
2023-12-13T18:52:09.282Z,95641.66
2023-12-13T18:54:38.376Z,95645.03
2023-12-13T18:57:06.485Z,95644.20
2023-12-13T18:59:35.367Z,95645.36
2023-12-13T19:02:03.491Z,95638.02
2023-12-13T19:04:31.478Z,95639.75
2023-12-13T19:06:59.717Z,95644.73
2023-12-13T19:09:29.145Z,95653.49
2023-12-13T19:11:57.552Z,95651.83
2023-12-13T19:14:28.676Z,95656.56
2023-12-13T19:16:56.682Z,95652.49
2023-12-13T19:19:24.814Z,95642.80
2023-12-13T19:21:53.139Z,95633.08
2023-12-13T19:24:21.108Z,95628.20
2023-12-13T19:26:49.129Z,95651.90
2023-12-13T19:29:17.719Z,95659.20
2023-12-13T19:31:46.454Z,95655.98
2023-12-13T19:34:23.176Z,95651.98
2023-12-13T19:36:59.535Z,95645.77
2023-12-13T19:39:27.626Z,95650.29
2023-12-13T19:41:55.918Z,95660.59
2023-12-13T19:44:23.967Z,95653.12
2023-12-13T19:46:52.114Z,95668.92
2023-12-13T19:49:20.212Z,95674.81
2023-12-13T19:51:51.394Z,95658.23
2023-12-13T19:54:19.499Z,95648.92
2023-12-13T19:56:47.857Z,95646.77
2023-12-13T19:59:16.172Z,95634.22
2023-12-13T20:01:44.446Z,95634.33
2023-12-13T20:04:12.718Z,95642.36
2023-12-13T20:06:40.736Z,95634.72
2023-12-13T20:09:08.923Z,95632.76
2023-12-13T20:11:37.077Z,95638.08
2023-12-13T20:14:05.809Z,95628.91
2023-12-13T20:16:34.119Z,95639.70
2023-12-13T20:19:02.292Z,95656.01
2023-12-13T20:21:31.976Z,95653.90
2023-12-13T20:24:00.730Z,95642.09
2023-12-13T20:26:29.738Z,95644.27
2023-12-13T20:28:58.205Z,95643.33
2023-12-13T20:31:26.287Z,95640.30
2023-12-13T20:33:54.529Z,95643.76
2023-12-13T20:36:22.886Z,95649.88
2023-12-13T20:38:51.552Z,95647.90
2023-12-13T20:41:19.770Z,95643.11
2023-12-13T20:43:47.908Z,95639.79
2023-12-13T20:46:15.972Z,95635.11
2023-12-13T20:48:44.064Z,95625.16
2023-12-13T20:51:12.123Z,95618.33
2023-12-13T20:53:42.846Z,95611.94
2023-12-13T20:56:11.781Z,95608.92
2023-12-13T20:58:41.047Z,95610.24
2023-12-13T21:01:09.202Z,95613.10
2023-12-13T21:03:38.397Z,95617.95
2023-12-13T21:06:06.925Z,95626.96
2023-12-13T21:08:35.014Z,95615.15
2023-12-13T21:11:03.281Z,95609.39
2023-12-13T21:13:33.409Z,95619.38
2023-12-13T21:16:01.809Z,95618.90
2023-12-13T21:18:30.185Z,95603.50
2023-12-13T21:20:58.714Z,95591.23
2023-12-13T21:23:26.910Z,95585.55
2023-12-13T21:25:54.988Z,95586.88
2023-12-13T21:28:23.575Z,95588.23
2023-12-13T21:30:52.343Z,95586.57
2023-12-13T21:33:20.536Z,95589.48
2023-12-13T21:35:50.231Z,95591.13
2023-12-13T21:38:18.715Z,95586.67
2023-12-13T21:40:46.884Z,95582.11
2023-12-13T21:43:14.929Z,95577.95
2023-12-13T21:45:43.007Z,95576.30
2023-12-13T21:48:11.235Z,95565.75
2023-12-13T21:50:39.562Z,95559.83
2023-12-13T21:53:07.465Z,95560.42
2023-12-13T21:55:36.313Z,95564.73
2023-12-13T21:58:04.394Z,95559.98
2023-12-13T22:00:32.489Z,95563.41
2023-12-13T22:03:00.631Z,95564.16
2023-12-13T22:05:28.918Z,95567.45
2023-12-13T22:07:56.966Z,95550.17
2023-12-13T22:10:28.135Z,95546.89
2023-12-13T22:12:56.658Z,95545.64
2023-12-13T22:15:24.614Z,95540.61
2023-12-13T22:17:56.040Z,95539.15
2023-12-13T22:20:24.550Z,95535.71
2023-12-13T22:22:52.969Z,95541.18
2023-12-13T22:25:21.410Z,95538.20
2023-12-13T22:27:49.429Z,95539.25
2023-12-13T22:30:17.640Z,95540.40
2023-12-13T22:32:45.780Z,95533.90
2023-12-13T22:35:14.012Z,95536.25
2023-12-13T22:37:42.404Z,95527.59
2023-12-13T22:40:10.930Z,95535.29
2023-12-13T22:42:39.096Z,95526.92
2023-12-13T22:45:07.424Z,95520.67
2023-12-13T22:47:35.431Z,95514.09
2023-12-13T22:50:03.972Z,95504.55
2023-12-13T22:52:33.205Z,95497.17
2023-12-13T22:55:01.308Z,95500.81
2023-12-13T22:57:29.209Z,95513.38
2023-12-13T22:59:57.607Z,95509.18
2023-12-13T23:02:25.710Z,95524.58
2023-12-13T23:04:54.141Z,95524.09
2023-12-13T23:07:22.357Z,95521.52
2023-12-13T23:09:50.385Z,95528.93
2023-12-13T23:12:18.340Z,95524.02
2023-12-13T23:14:46.553Z,95540.82
2023-12-13T23:17:14.659Z,95536.48
2023-12-13T23:19:42.789Z,95542.08
2023-12-13T23:22:11.068Z,95558.67
2023-12-13T23:24:39.360Z,95584.77
2023-12-13T23:27:07.654Z,95591.62
2023-12-13T23:29:39.190Z,95598.94
2023-12-13T23:32:07.685Z,95599.13
2023-12-13T23:34:35.912Z,95620.52
2023-12-13T23:37:04.097Z,95639.52
2023-12-13T23:39:32.133Z,95627.53
2023-12-13T23:42:00.249Z,95617.73
2023-12-13T23:44:28.442Z,95621.17
2023-12-13T23:46:58.830Z,95623.79
2023-12-13T23:49:27.039Z,95631.71
2023-12-13T23:51:55.476Z,95637.26
2023-12-13T23:54:23.658Z,95646.67
2023-12-13T23:56:51.646Z,95637.42
2023-12-13T23:59:19.889Z,95649.58
